createdAt,value
2023-01-07T00:02:59.952Z,85.65
2023-01-07T00:06:07.514Z,85.68
2023-01-07T00:09:12.608Z,85.50
2023-01-07T00:12:14.185Z,85.53
2023-01-07T00:15:15.911Z,85.42
2023-01-07T00:18:17.697Z,85.45
2023-01-07T00:21:20.934Z,85.60
2023-01-07T00:24:22.579Z,85.54
2023-01-07T00:27:24.329Z,85.49
2023-01-07T00:30:25.874Z,85.86
2023-01-07T00:33:27.480Z,85.43
2023-01-07T00:36:30.167Z,85.27
2023-01-07T00:39:34.947Z,85.15
2023-01-07T00:42:36.505Z,85.25
2023-01-07T00:45:38.250Z,85.13
2023-01-07T00:48:39.823Z,85.10
2023-01-07T00:51:41.530Z,85.05
2023-01-07T00:54:43.392Z,84.96
2023-01-07T00:57:45.255Z,85.29
2023-01-07T01:00:47.088Z,84.90
2023-01-07T01:03:48.748Z,84.87
2023-01-07T01:06:50.374Z,85.39
2023-01-07T01:09:52.113Z,85.60
2023-01-07T01:12:53.749Z,85.47
2023-01-07T01:15:55.512Z,85.19
2023-01-07T01:18:57.154Z,85.23
2023-01-07T01:21:59.192Z,85.04
2023-01-07T01:25:00.707Z,84.97
2023-01-07T01:28:02.680Z,85.10
2023-01-07T01:31:04.687Z,84.58
2023-01-07T01:34:06.380Z,84.61
2023-01-07T01:37:08.104Z,84.70
2023-01-07T01:40:10.712Z,85.22
2023-01-07T01:43:35.749Z,85.21
2023-01-07T01:46:42.198Z,85.03
2023-01-07T01:49:50.207Z,84.76
2023-01-07T01:53:01.808Z,84.67
2023-01-07T01:56:09.435Z,84.89
2023-01-07T01:59:14.643Z,84.48
2023-01-07T02:02:21.369Z,84.31
2023-01-07T02:05:26.248Z,84.26
2023-01-07T02:08:28.295Z,84.00
2023-01-07T02:11:33.795Z,83.94
2023-01-07T02:14:47.611Z,84.34
2023-01-07T02:18:08.905Z,84.09
2023-01-07T02:21:32.520Z,84.08
2023-01-07T02:24:49.329Z,84.03
2023-01-07T02:28:26.431Z,84.08
2023-01-07T02:32:05.829Z,84.08
2023-01-07T02:35:07.436Z,84.12
2023-01-07T02:38:21.285Z,83.93
2023-01-07T02:41:31.900Z,83.82
2023-01-07T02:44:48.761Z,83.67
2023-01-07T02:47:54.574Z,84.00
2023-01-07T02:50:56.075Z,83.79
2023-01-07T02:53:57.583Z,83.78
2023-01-07T02:57:24.472Z,83.70
2023-01-07T03:00:49.425Z,83.61
2023-01-07T03:04:10.018Z,83.64
2023-01-07T03:07:24.863Z,83.60
2023-01-07T03:10:59.941Z,83.62
2023-01-07T03:14:13.809Z,83.62
2023-01-07T03:17:19.841Z,83.83
2023-01-07T03:20:24.643Z,83.83
2023-01-07T03:23:27.940Z,83.53
2023-01-07T03:26:36.513Z,83.38
2023-01-07T03:29:38.161Z,83.31
2023-01-07T03:32:41.779Z,83.18
2023-01-07T03:35:46.019Z,83.04
2023-01-07T03:38:48.516Z,83.09
2023-01-07T03:41:50.913Z,83.01
2023-01-07T03:44:52.586Z,82.90
2023-01-07T03:47:56.008Z,82.90
2023-01-07T03:50:57.662Z,82.83
2023-01-07T03:53:59.113Z,82.85
2023-01-07T03:57:00.692Z,82.89
2023-01-07T04:00:02.196Z,82.92
2023-01-07T04:03:04.052Z,82.89
2023-01-07T04:06:05.617Z,82.73
2023-01-07T04:09:07.265Z,82.79
2023-01-07T04:12:08.921Z,82.54
2023-01-07T04:15:11.083Z,82.45
2023-01-07T04:18:12.731Z,82.31
2023-01-07T04:21:14.233Z,82.11
2023-01-07T04:24:15.864Z,81.88
2023-01-07T04:27:17.626Z,82.12
2023-01-07T04:30:19.123Z,82.24
2023-01-07T04:33:20.923Z,82.46
2023-01-07T04:36:22.705Z,82.83
2023-01-07T04:39:24.197Z,83.03
2023-01-07T04:42:25.791Z,82.91
2023-01-07T04:45:27.545Z,82.87
2023-01-07T04:48:29.469Z,82.93
2023-01-07T04:51:31.150Z,82.97
2023-01-07T04:54:32.828Z,82.80
2023-01-07T04:57:34.496Z,82.06
2023-01-07T05:00:35.992Z,81.70
2023-01-07T05:03:38.017Z,82.17
2023-01-07T05:06:39.555Z,82.54
2023-01-07T05:09:41.181Z,82.36
2023-01-07T05:12:42.898Z,82.34
2023-01-07T05:15:44.863Z,82.71
2023-01-07T05:18:46.467Z,82.86
2023-01-07T05:21:48.045Z,82.75
2023-01-07T05:24:49.695Z,82.67
2023-01-07T05:27:51.389Z,82.64
2023-01-07T05:30:53.090Z,82.75
2023-01-07T05:33:54.671Z,82.60
2023-01-07T05:36:56.660Z,82.76
2023-01-07T05:39:58.277Z,83.15
2023-01-07T05:43:00.047Z,82.85
2023-01-07T05:46:01.684Z,83.07
2023-01-07T05:49:03.596Z,83.10
2023-01-07T05:52:05.241Z,83.36
2023-01-07T05:55:07.018Z,83.40
2023-01-07T05:58:08.754Z,83.25
2023-01-07T06:01:10.295Z,82.82
2023-01-07T06:04:12.021Z,82.80
2023-01-07T06:07:13.661Z,82.35
2023-01-07T06:10:15.303Z,82.37
2023-01-07T06:13:16.811Z,82.36
2023-01-07T06:16:18.471Z,82.53
2023-01-07T06:19:20.136Z,82.50
2023-01-07T06:22:21.582Z,82.12
2023-01-07T06:25:23.133Z,82.50
2023-01-07T06:28:24.796Z,82.78
2023-01-07T06:31:26.569Z,83.09
2023-01-07T06:34:28.044Z,83.29
2023-01-07T06:37:29.874Z,84.12
2023-01-07T06:40:31.787Z,84.39
2023-01-07T06:43:33.377Z,84.17
2023-01-07T06:46:34.912Z,84.14
2023-01-07T06:49:36.736Z,83.68
2023-01-07T06:52:38.383Z,83.62
2023-01-07T06:55:40.004Z,83.38
2023-01-07T06:58:41.653Z,83.70
2023-01-07T07:01:46.212Z,83.80
2023-01-07T07:04:48.409Z,83.72
2023-01-07T07:07:50.020Z,83.35
2023-01-07T07:10:51.683Z,83.08
2023-01-07T07:13:53.268Z,83.02
2023-01-07T07:16:54.801Z,83.09
2023-01-07T07:19:56.352Z,83.24
2023-01-07T07:22:57.878Z,83.25
2023-01-07T07:25:59.480Z,83.24
2023-01-07T07:29:01.100Z,83.07
2023-01-07T07:32:02.696Z,82.57
2023-01-07T07:35:04.716Z,82.54
2023-01-07T07:38:06.366Z,82.81
2023-01-07T07:41:07.845Z,82.76
2023-01-07T07:44:09.443Z,82.96
2023-01-07T07:47:13.449Z,83.01
2023-01-07T07:50:15.076Z,82.94
2023-01-07T07:53:16.578Z,82.62
2023-01-07T07:56:18.281Z,82.87
2023-01-07T07:59:19.834Z,83.13
2023-01-07T08:02:21.611Z,83.12
2023-01-07T08:05:23.606Z,82.94
2023-01-07T08:08:25.366Z,82.88
2023-01-07T08:11:26.813Z,82.82
2023-01-07T08:14:28.456Z,82.77
2023-01-07T08:17:30.061Z,82.64
2023-01-07T08:20:31.745Z,82.51
2023-01-07T08:23:33.373Z,82.81
2023-01-07T08:26:34.980Z,83.05
2023-01-07T08:29:36.736Z,83.32
2023-01-07T08:32:38.338Z,83.11
2023-01-07T08:35:40.267Z,82.64
2023-01-07T08:38:41.981Z,82.24
2023-01-07T08:41:43.445Z,82.28
2023-01-07T08:44:45.057Z,82.48
2023-01-07T08:47:46.815Z,82.77
2023-01-07T08:50:51.912Z,82.48
2023-01-07T08:53:54.787Z,82.70
2023-01-07T08:56:57.074Z,82.56
2023-01-07T08:59:58.580Z,82.78
2023-01-07T09:03:00.205Z,82.77
2023-01-07T09:06:01.821Z,82.86
2023-01-07T09:09:03.570Z,82.80
2023-01-07T09:12:05.952Z,82.63
2023-01-07T09:15:08.586Z,82.76
2023-01-07T09:18:10.291Z,83.23
2023-01-07T09:21:11.939Z,82.99
2023-01-07T09:24:22.181Z,82.72
2023-01-07T09:27:23.801Z,82.99
2023-01-07T09:30:26.021Z,82.66
2023-01-07T09:33:27.670Z,82.65
2023-01-07T09:36:29.391Z,82.10
2023-01-07T09:39:31.020Z,81.82
2023-01-07T09:43:05.046Z,81.92
2023-01-07T09:46:08.040Z,81.93
2023-01-07T09:49:15.280Z,82.02
2023-01-07T09:52:24.179Z,81.70
2023-01-07T09:55:36.195Z,81.04
2023-01-07T09:58:38.133Z,80.96
2023-01-07T10:01:51.969Z,81.54
2023-01-07T10:05:30.082Z,81.28
2023-01-07T10:08:42.801Z,80.81
2023-01-07T10:11:50.600Z,80.76
2023-01-07T10:15:21.389Z,81.17
2023-01-07T10:18:44.716Z,80.92
2023-01-07T10:21:57.725Z,80.95
2023-01-07T10:25:04.361Z,81.01
2023-01-07T10:28:11.922Z,81.24
2023-01-07T10:31:19.792Z,81.38
2023-01-07T10:34:36.149Z,81.45
2023-01-07T10:37:39.656Z,81.51
2023-01-07T10:40:51.888Z,81.49
2023-01-07T10:44:20.052Z,81.26
2023-01-07T10:47:34.080Z,81.25
2023-01-07T10:51:01.754Z,81.12
2023-01-07T10:54:22.833Z,80.65
2023-01-07T10:57:26.212Z,80.42
2023-01-07T11:00:28.059Z,80.43
2023-01-07T11:03:29.609Z,80.25
2023-01-07T11:06:48.941Z,80.35
2023-01-07T11:09:50.950Z,80.57
2023-01-07T11:12:56.667Z,80.63
2023-01-07T11:16:21.411Z,80.60
2023-01-07T11:19:41.821Z,80.14
2023-01-07T11:22:44.778Z,80.06
2023-01-07T11:25:47.405Z,80.46
2023-01-07T11:29:00.622Z,80.87
2023-01-07T11:32:02.253Z,80.25
2023-01-07T11:35:22.915Z,79.90
2023-01-07T11:38:33.445Z,79.83
2023-01-07T11:41:35.196Z,79.94
2023-01-07T11:44:36.861Z,80.07
2023-01-07T11:47:40.295Z,80.31
2023-01-07T11:50:43.970Z,80.32
2023-01-07T11:53:59.041Z,80.47
2023-01-07T11:57:17.701Z,80.88
2023-01-07T12:00:20.885Z,80.73
2023-01-07T12:03:22.560Z,80.68
2023-01-07T12:06:27.564Z,80.91
2023-01-07T12:09:34.687Z,80.81
2023-01-07T12:12:37.220Z,81.03
2023-01-07T12:15:52.189Z,80.67
2023-01-07T12:19:09.352Z,80.61
2023-01-07T12:22:41.279Z,80.50
2023-01-07T12:25:58.823Z,80.77
2023-01-07T12:29:16.929Z,80.83
2023-01-07T12:32:41.273Z,80.89
2023-01-07T12:35:44.448Z,80.72
2023-01-07T12:38:50.191Z,80.55
2023-01-07T12:42:13.135Z,80.77
2023-01-07T12:45:25.688Z,80.52
2023-01-07T12:48:53.290Z,80.28
2023-01-07T12:52:05.069Z,80.19
2023-01-07T12:55:44.737Z,80.00
2023-01-07T12:58:49.393Z,80.47
2023-01-07T13:01:57.713Z,80.68
2023-01-07T13:05:11.394Z,80.21
2023-01-07T13:08:37.946Z,80.06
2023-01-07T13:11:46.418Z,80.62
2023-01-07T13:14:51.959Z,80.83
2023-01-07T13:18:02.528Z,80.85
2023-01-07T13:21:08.077Z,80.86
2023-01-07T13:24:56.559Z,80.63
2023-01-07T13:28:10.821Z,80.73
2023-01-07T13:31:46.539Z,80.66
2023-01-07T13:35:03.409Z,80.66
2023-01-07T13:38:12.109Z,80.48
2023-01-07T13:41:45.678Z,80.49
2023-01-07T13:45:21.669Z,80.43
2023-01-07T13:48:26.341Z,80.20
2023-01-07T13:51:30.933Z,80.25
2023-01-07T13:54:53.504Z,80.34
2023-01-07T13:57:55.184Z,80.20
2023-01-07T14:01:03.166Z,80.61
2023-01-07T14:04:04.830Z,80.65
2023-01-07T14:07:07.605Z,80.84
2023-01-07T14:10:29.944Z,80.47
2023-01-07T14:13:52.863Z,80.33
2023-01-07T14:17:13.392Z,80.59
2023-01-07T14:20:46.091Z,80.57
2023-01-07T14:24:16.716Z,80.08
2023-01-07T14:27:29.097Z,80.14
2023-01-07T14:30:45.784Z,80.13
2023-01-07T14:33:50.702Z,80.40
2023-01-07T14:37:01.536Z,80.65
2023-01-07T14:40:25.981Z,80.58
2023-01-07T14:43:42.974Z,80.42
2023-01-07T14:46:46.431Z,80.15
2023-01-07T14:49:51.002Z,80.42
2023-01-07T14:53:16.453Z,80.60
2023-01-07T14:56:23.745Z,80.61
2023-01-07T14:59:53.497Z,80.18
2023-01-07T15:03:31.084Z,80.05
2023-01-07T15:06:38.954Z,80.55
2023-01-07T15:09:52.338Z,81.29
2023-01-07T15:12:55.697Z,80.91
2023-01-07T15:15:57.478Z,80.82
2023-01-07T15:18:59.157Z,80.96
2023-01-07T15:22:20.892Z,80.95
2023-01-07T15:25:46.520Z,80.72
2023-01-07T15:28:51.325Z,80.49
2023-01-07T15:32:08.421Z,80.69
2023-01-07T15:35:40.168Z,81.07
2023-01-07T15:38:50.763Z,80.80
2023-01-07T15:41:54.373Z,80.86
2023-01-07T15:44:57.468Z,80.83
2023-01-07T15:48:07.909Z,81.09
2023-01-07T15:51:15.667Z,81.26
2023-01-07T15:54:35.012Z,81.22
2023-01-07T15:57:36.580Z,81.35
2023-01-07T16:00:38.205Z,81.22
2023-01-07T16:03:41.970Z,81.13
2023-01-07T16:06:43.677Z,81.03
2023-01-07T16:09:45.164Z,80.74
2023-01-07T16:12:52.372Z,80.78
2023-01-07T16:15:59.294Z,80.97
2023-01-07T16:19:02.593Z,81.17
2023-01-07T16:22:04.244Z,81.28
2023-01-07T16:25:06.813Z,80.77
2023-01-07T16:28:16.239Z,80.53
2023-01-07T16:31:21.568Z,81.50
2023-01-07T16:34:26.322Z,81.98
2023-01-07T16:37:28.614Z,81.35
2023-01-07T16:40:34.557Z,81.54
2023-01-07T16:43:38.997Z,81.64
2023-01-07T16:46:40.562Z,81.90
2023-01-07T16:49:42.240Z,82.13
2023-01-07T16:52:55.315Z,81.88
2023-01-07T16:56:15.403Z,81.78
2023-01-07T16:59:17.263Z,82.10
2023-01-07T17:02:28.241Z,82.15
2023-01-07T17:05:31.141Z,81.95
2023-01-07T17:08:33.959Z,81.95
2023-01-07T17:11:38.542Z,81.90
2023-01-07T17:14:49.997Z,82.26
2023-01-07T17:17:51.617Z,82.10
2023-01-07T17:20:54.508Z,82.22
2023-01-07T17:23:56.266Z,82.03
2023-01-07T17:26:58.416Z,82.15
2023-01-07T17:30:04.914Z,82.16
2023-01-07T17:33:06.596Z,82.32
2023-01-07T17:36:26.714Z,82.61
2023-01-07T17:39:28.352Z,82.63
2023-01-07T17:42:32.993Z,82.80
2023-01-07T17:45:35.264Z,83.08
2023-01-07T17:48:37.060Z,83.21
2023-01-07T17:51:41.031Z,82.95
2023-01-07T17:54:44.210Z,83.09
2023-01-07T17:57:45.972Z,82.95
2023-01-07T18:00:47.536Z,82.92
2023-01-07T18:03:50.423Z,83.07
2023-01-07T18:06:52.005Z,83.18
2023-01-07T18:09:53.600Z,83.08
2023-01-07T18:12:55.151Z,83.17
2023-01-07T18:15:57.701Z,83.45
2023-01-07T18:18:59.268Z,83.45
2023-01-07T18:22:00.854Z,83.53
2023-01-07T18:25:02.467Z,83.31
2023-01-07T18:28:04.224Z,83.47
2023-01-07T18:31:05.716Z,83.37
2023-01-07T18:34:08.766Z,83.38
2023-01-07T18:37:10.428Z,83.27
2023-01-07T18:40:11.967Z,83.11
2023-01-07T18:43:14.968Z,83.22
2023-01-07T18:46:17.801Z,83.06
2023-01-07T18:49:19.507Z,83.16
2023-01-07T18:52:21.103Z,83.06
2023-01-07T18:55:22.708Z,82.77
2023-01-07T18:58:24.524Z,82.83
2023-01-07T19:01:26.200Z,82.70
2023-01-07T19:04:28.051Z,82.63
2023-01-07T19:07:29.868Z,82.45
2023-01-07T19:10:31.688Z,82.61
2023-01-07T19:13:33.271Z,82.68
2023-01-07T19:16:35.945Z,82.83
2023-01-07T19:19:48.029Z,82.90
2023-01-07T19:22:50.127Z,82.72
2023-01-07T19:26:03.220Z,82.77
2023-01-07T19:29:04.961Z,83.10
2023-01-07T19:32:06.451Z,83.07
2023-01-07T19:35:08.708Z,82.79
2023-01-07T19:38:10.953Z,82.95
2023-01-07T19:41:14.881Z,83.43
2023-01-07T19:44:16.761Z,83.15
2023-01-07T19:47:18.486Z,83.13
2023-01-07T19:50:20.023Z,83.25
2023-01-07T19:53:21.638Z,83.07
2023-01-07T19:56:23.210Z,83.36
2023-01-07T19:59:25.808Z,83.14
2023-01-07T20:02:27.573Z,83.12
2023-01-07T20:05:29.292Z,82.56
2023-01-07T20:08:31.254Z,82.50
2023-01-07T20:11:32.816Z,82.58
2023-01-07T20:14:34.497Z,82.90
2023-01-07T20:17:36.105Z,83.03
2023-01-07T20:20:37.713Z,83.34
2023-01-07T20:23:40.669Z,83.12
2023-01-07T20:26:42.212Z,83.40
2023-01-07T20:29:44.018Z,83.55
2023-01-07T20:32:45.621Z,83.78
2023-01-07T20:35:47.123Z,83.59
2023-01-07T20:38:48.771Z,84.01
2023-01-07T20:41:50.370Z,83.51
2023-01-07T20:44:51.928Z,83.47
2023-01-07T20:47:53.528Z,83.56
2023-01-07T20:50:55.293Z,83.31
2023-01-07T20:53:57.815Z,83.27
2023-01-07T20:56:59.349Z,83.34
2023-01-07T21:00:01.000Z,83.11
2023-01-07T21:03:02.792Z,83.41
2023-01-07T21:06:04.942Z,82.78
2023-01-07T21:09:06.656Z,83.20
2023-01-07T21:12:08.284Z,82.81
2023-01-07T21:15:11.549Z,82.56
2023-01-07T21:18:13.286Z,82.39
2023-01-07T21:21:19.255Z,82.62
2023-01-07T21:24:21.052Z,82.72
2023-01-07T21:27:22.567Z,82.94
2023-01-07T21:30:24.070Z,83.34
2023-01-07T21:33:25.599Z,83.22
2023-01-07T21:36:28.240Z,83.63
2023-01-07T21:39:29.849Z,83.23
2023-01-07T21:42:31.488Z,82.29
2023-01-07T21:45:33.069Z,82.09
2023-01-07T21:48:36.780Z,82.78
2023-01-07T21:51:42.656Z,83.01
2023-01-07T21:54:44.314Z,83.15
2023-01-07T21:57:46.087Z,83.16
2023-01-07T22:00:53.934Z,83.09
2023-01-07T22:03:56.899Z,83.14
2023-01-07T22:06:58.605Z,83.16
2023-01-07T22:10:00.184Z,83.05
2023-01-07T22:13:01.772Z,83.08
2023-01-07T22:16:04.844Z,83.12
2023-01-07T22:19:06.463Z,83.35
2023-01-07T22:22:08.146Z,83.07
2023-01-07T22:25:09.859Z,83.32
2023-01-07T22:28:11.579Z,83.21
2023-01-07T22:31:24.207Z,83.42
2023-01-07T22:34:26.318Z,83.37
2023-01-07T22:37:27.889Z,83.18
2023-01-07T22:40:30.478Z,83.36
2023-01-07T22:43:32.347Z,83.05
2023-01-07T22:46:34.140Z,83.48
2023-01-07T22:49:35.768Z,83.34
2023-01-07T22:52:38.263Z,83.71
2023-01-07T22:55:40.397Z,83.42
2023-01-07T22:58:42.018Z,82.85
2023-01-07T23:01:43.695Z,82.95
2023-01-07T23:04:45.272Z,82.89
2023-01-07T23:07:46.879Z,82.79
2023-01-07T23:10:48.803Z,83.20
2023-01-07T23:13:50.449Z,83.26
2023-01-07T23:16:52.539Z,83.11
2023-01-07T23:19:54.216Z,83.23
2023-01-07T23:22:55.877Z,83.09
2023-01-07T23:25:57.442Z,82.94
2023-01-07T23:28:59.247Z,83.66
2023-01-07T23:32:01.036Z,85.91
2023-01-07T23:35:02.573Z,86.75
2023-01-07T23:38:04.336Z,86.19
2023-01-07T23:41:07.055Z,85.22
2023-01-07T23:44:08.640Z,84.31
2023-01-07T23:47:10.193Z,83.36
2023-01-07T23:50:12.564Z,83.63
2023-01-07T23:53:14.124Z,84.09
2023-01-07T23:56:18.996Z,83.78
2023-01-07T23:59:20.621Z,83.79
